Harbinger, NC (27941)

2:05 PM EST on February 12, 2016 (GMT -0500)
The Compound | | Change Station
CLOSE
Current Station
Personal Weather Station
Location: Point Harbor, NC
Elevation: 13 ft
Nearby Weather Stations
Active Advisory: Winter Storm Warning

Elev 13 ft 36.09 °N, 75.79 °W | Updated 1 second ago

Overcast
Overcast
30.9 °F
Feels Like 24 °F
N
7.6
Wind Variable Wind from NE
Gusts 7.6 mph

Today
High -- | Low -- °F
--% Chance of Precip.
Yesterday
High -- | Low -- °F
Precip. -- in
Pressure 30.12 in
Visibility 2.5 miles
Clouds Scattered Clouds 1200 ft
Mostly Cloudy 1900 ft
Overcast 2700 ft
Windchill 24 °F
Dew Point 23 °F
Humidity 73%
Rainfall 0.00 in
Snow Depth Not available.
6:54 AM 5:41 PM
Waxing Crescent, 23% visible
METAR KFFA 121840Z AUTO 00000KT 2 1/2SM -SN SCT012 BKN019 OVC027 01/M06 A3012 RMK AO2 T00141063
Pressure 30.12 in
Visibility 2.5 miles
Clouds Scattered Clouds 1200 ft
Mostly Cloudy 1900 ft
Overcast 2700 ft
Windchill 24 °F
Dew Point 23 °F
Humidity 73%
Rainfall 0.00 in
Snow Depth Not available.
6:54 AM 5:41 PM
Waxing Crescent, 23% visible
METAR KFFA 121840Z AUTO 00000KT 2 1/2SM -SN SCT012 BKN019 OVC027 01/M06 A3012 RMK AO2 T00141063

10-Day Weather Forecast

Almanac

Astronomy

Feb. 12, 2016 Rise Set
Actual Time
Civil Twilight
Nautical Twilight
Astronomical Twilight
Moon
Length of Visible Light
Length of Day
Tomorrow will be .
, % of the Moon is Illuminated

Today's Extremes

State Highs State Lows

Community

WunderPhotos

Upload Photos

1,892,374 photos uploaded!

WunderBlog® & News

Nearby

Air Quality

  Air Quality AQ Index Pollutant
Not available.

Snow Depth

Station Depth Elevation

Earthquake Activity

City Distance Mag. Time & Date
Minimum magnitude displayed is 2.5.

Coastal Water Temperatures

Place Temperature

Stations

Nearby Weather Stations

Station Location Temp. Windchill Dew Point Humidity Wind Precip. Elev Updated Type
                   

Watches & Warnings

Winter Storm Warning
Issued: 9:20 AM EST Feb. 12, 2016 – National Weather Service

... Winter Storm Warning remains in effect until midnight EST
tonight...

* areas affected: northeast North Carolina.

* Hazards: snow.

* Accumulations: 2 to 4 inches.

* Temperatures: low to mid 30s today... falling into the low to
mid 20s tonight.

* Timing: snow will overspread the area around noon and continue
through this evening... impacting the evening commute.

* Impacts: roads will become snow covered and hazardous. Travel
will be impacted Friday.

Precautionary/preparedness actions...

A Winter Storm Warning means significant amounts of snow is
expected or occurring. This will make travel very hazardous or
impossible.